createdAt,value
2018-12-30T00:00:43.242Z,7.62
2018-12-30T00:03:07.641Z,7.52
2018-12-30T00:05:32.204Z,7.72
2018-12-30T00:07:56.888Z,7.73
2018-12-30T00:10:21.295Z,7.63
2018-12-30T00:12:52.845Z,7.50
2018-12-30T00:15:24.545Z,7.78
2018-12-30T00:17:48.931Z,7.60
2018-12-30T00:20:13.341Z,7.69
2018-12-30T00:22:37.705Z,7.61
2018-12-30T00:25:07.532Z,7.65
2018-12-30T00:27:32.006Z,7.81
2018-12-30T00:29:56.384Z,7.73
2018-12-30T00:32:31.449Z,7.88
2018-12-30T00:34:55.819Z,7.62
2018-12-30T00:37:20.232Z,7.71
2018-12-30T00:39:44.616Z,7.87
2018-12-30T00:42:09.025Z,7.79
2018-12-30T00:44:33.396Z,7.67
2018-12-30T00:46:57.790Z,7.62
2018-12-30T00:49:29.421Z,7.80
2018-12-30T00:51:53.818Z,7.91
2018-12-30T00:54:18.212Z,7.81
2018-12-30T00:56:42.591Z,8.09
2018-12-30T00:59:06.983Z,7.83
2018-12-30T01:01:31.347Z,8.01
2018-12-30T01:04:08.368Z,7.89
2018-12-30T01:06:32.759Z,7.88
2018-12-30T01:08:57.154Z,7.92
2018-12-30T01:11:21.534Z,7.91
2018-12-30T01:13:45.932Z,8.11
2018-12-30T01:16:10.321Z,7.94
2018-12-30T01:18:34.706Z,8.04
2018-12-30T01:20:59.098Z,7.94
2018-12-30T01:23:23.497Z,8.03
2018-12-30T01:25:54.896Z,8.13
2018-12-30T01:28:19.285Z,8.15
2018-12-30T01:30:49.664Z,8.05
2018-12-30T01:33:14.036Z,8.06
2018-12-30T01:35:38.441Z,8.20
2018-12-30T01:38:02.818Z,8.36
2018-12-30T01:40:27.225Z,8.48
2018-12-30T01:42:58.796Z,8.29
2018-12-30T01:45:23.201Z,8.19
2018-12-30T01:47:47.592Z,8.16
2018-12-30T01:50:12.072Z,8.09
2018-12-30T01:52:36.456Z,8.30
2018-12-30T01:55:00.857Z,8.49
2018-12-30T01:57:25.247Z,8.42
2018-12-30T01:59:56.927Z,8.34
2018-12-30T02:02:21.360Z,8.60
2018-12-30T02:04:45.727Z,8.15
2018-12-30T02:07:10.109Z,8.19
2018-12-30T02:09:34.512Z,8.18
2018-12-30T02:11:58.921Z,8.34
2018-12-30T02:14:23.291Z,8.34
2018-12-30T02:16:54.603Z,8.24
2018-12-30T02:19:30.789Z,7.72
2018-12-30T02:21:55.204Z,7.82
2018-12-30T02:24:19.589Z,8.18
2018-12-30T02:26:43.970Z,7.81
2018-12-30T02:29:08.382Z,7.72
2018-12-30T02:31:32.772Z,8.07
2018-12-30T02:33:57.161Z,7.73
2018-12-30T02:36:21.532Z,7.58
2018-12-30T02:38:45.951Z,7.54
2018-12-30T02:41:10.342Z,7.33
2018-12-30T02:43:34.771Z,7.56
2018-12-30T02:45:59.142Z,7.48
2018-12-30T02:48:23.591Z,7.09
2018-12-30T02:50:47.985Z,7.33
2018-12-30T02:53:12.371Z,7.50
2018-12-30T02:55:36.776Z,7.34
2018-12-30T02:58:01.157Z,7.80
2018-12-30T03:00:25.552Z,7.27
2018-12-30T03:02:49.924Z,7.81
2018-12-30T03:05:14.616Z,7.50
2018-12-30T03:07:39.004Z,7.63
2018-12-30T03:10:03.662Z,7.89
2018-12-30T03:12:28.068Z,7.50
2018-12-30T03:14:52.439Z,7.56
2018-12-30T03:17:16.855Z,7.93
2018-12-30T03:19:41.240Z,7.59
2018-12-30T03:22:05.808Z,7.68
2018-12-30T03:24:30.200Z,7.30
2018-12-30T03:26:54.613Z,7.61
2018-12-30T03:29:18.989Z,7.50
2018-12-30T03:31:43.411Z,7.73
2018-12-30T03:34:07.789Z,7.06
2018-12-30T03:36:32.173Z,7.34
2018-12-30T03:38:56.587Z,7.48
2018-12-30T03:41:20.959Z,7.38
2018-12-30T03:43:45.451Z,7.60
2018-12-30T03:46:09.827Z,8.01
2018-12-30T03:48:34.230Z,7.69
2018-12-30T03:50:58.611Z,8.19
2018-12-30T03:53:23.005Z,7.64
2018-12-30T03:55:47.382Z,7.65
2018-12-30T03:58:11.771Z,7.72
2018-12-30T04:00:36.172Z,7.67
2018-12-30T04:03:00.550Z,7.50
2018-12-30T04:05:24.955Z,7.75
2018-12-30T04:07:49.342Z,7.90
2018-12-30T04:10:13.738Z,7.59
2018-12-30T04:12:38.118Z,7.61
2018-12-30T04:15:02.528Z,7.61
2018-12-30T04:20:23.524Z,7.71
2018-12-30T04:22:48.016Z,8.07
2018-12-30T04:25:12.504Z,7.52
2018-12-30T04:27:36.977Z,7.58
2018-12-30T04:30:01.496Z,7.59
2018-12-30T04:32:25.918Z,7.74
2018-12-30T04:34:50.305Z,7.86
2018-12-30T04:37:14.696Z,7.48
2018-12-30T04:39:39.072Z,7.65
2018-12-30T04:42:03.468Z,7.22
2018-12-30T04:44:27.859Z,7.56
2018-12-30T04:46:52.245Z,7.55
2018-12-30T04:49:16.626Z,7.12
2018-12-30T04:51:46.820Z,7.11
2018-12-30T04:54:11.216Z,7.46
2018-12-30T04:59:11.707Z,7.36
2018-12-30T05:01:36.115Z,7.65
2018-12-30T05:04:00.511Z,7.43
2018-12-30T05:06:24.888Z,7.59
2018-12-30T05:08:49.285Z,7.55
2018-12-30T05:11:13.740Z,7.49
2018-12-30T05:13:38.142Z,7.49
2018-12-30T05:16:02.514Z,7.86
2018-12-30T05:18:26.925Z,7.53
2018-12-30T05:20:51.311Z,7.68
2018-12-30T05:23:15.684Z,7.86
2018-12-30T05:25:40.095Z,7.74
2018-12-30T05:28:04.470Z,7.65
2018-12-30T05:30:28.884Z,7.70
2018-12-30T05:32:53.281Z,7.53
2018-12-30T05:35:17.709Z,7.29
2018-12-30T05:37:42.081Z,7.26
2018-12-30T05:40:12.159Z,7.71
2018-12-30T05:42:36.549Z,8.12
2018-12-30T05:45:00.968Z,7.85
2018-12-30T05:47:25.354Z,7.48
2018-12-30T05:49:49.747Z,7.87
2018-12-30T05:52:14.149Z,7.57
2018-12-30T05:54:38.539Z,7.44
2018-12-30T05:57:02.924Z,7.72
2018-12-30T05:59:27.310Z,7.84
2018-12-30T06:01:51.718Z,8.25
2018-12-30T06:04:16.106Z,7.68
2018-12-30T06:06:40.496Z,8.07
2018-12-30T06:12:01.734Z,7.94
2018-12-30T06:14:26.150Z,8.46
2018-12-30T06:16:50.557Z,7.53
2018-12-30T06:19:14.947Z,7.80
2018-12-30T06:21:39.399Z,7.76
2018-12-30T06:24:03.764Z,7.74
2018-12-30T06:26:28.155Z,7.89
2018-12-30T06:28:52.637Z,7.96
2018-12-30T06:31:17.029Z,8.09
2018-12-30T06:33:41.426Z,7.97
2018-12-30T06:36:05.806Z,7.93
2018-12-30T06:38:35.634Z,8.40
2018-12-30T06:41:00.006Z,8.31
2018-12-30T06:43:24.433Z,7.82
2018-12-30T06:45:48.820Z,8.00
2018-12-30T06:48:18.963Z,8.12
2018-12-30T06:50:43.379Z,8.03
2018-12-30T06:53:07.763Z,8.55
2018-12-30T06:55:32.162Z,8.32
2018-12-30T06:57:56.553Z,7.81
2018-12-30T07:00:20.950Z,7.76
2018-12-30T07:02:45.332Z,8.07
2018-12-30T07:05:09.820Z,8.18
2018-12-30T07:07:34.200Z,7.98
2018-12-30T07:09:58.575Z,8.32
2018-12-30T07:12:22.963Z,8.42
2018-12-30T07:14:47.367Z,8.44
2018-12-30T07:17:11.883Z,8.26
2018-12-30T07:19:36.253Z,8.50
2018-12-30T07:22:00.658Z,8.50
2018-12-30T07:24:25.052Z,8.20
2018-12-30T07:26:49.448Z,7.76
2018-12-30T07:29:13.841Z,8.05
2018-12-30T07:31:38.250Z,7.87
2018-12-30T07:34:02.651Z,7.49
2018-12-30T07:36:38.792Z,7.46
2018-12-30T07:41:38.474Z,7.97
2018-12-30T07:44:02.912Z,8.20
2018-12-30T07:46:27.295Z,8.41
2018-12-30T07:48:51.687Z,7.93
2018-12-30T07:51:16.081Z,8.05
2018-12-30T07:53:52.448Z,8.26
2018-12-30T07:56:16.834Z,8.29
2018-12-30T07:58:41.240Z,8.50
2018-12-30T08:01:05.629Z,8.72
2018-12-30T08:03:30.011Z,8.52
2018-12-30T08:05:54.419Z,8.23
2018-12-30T08:08:18.793Z,8.04
2018-12-30T08:10:43.211Z,8.18
2018-12-30T08:13:07.602Z,8.37
2018-12-30T08:15:32.026Z,8.03
2018-12-30T08:17:56.399Z,7.95
2018-12-30T08:22:56.691Z,8.32
2018-12-30T08:25:21.080Z,8.05
2018-12-30T08:27:45.457Z,8.46
2018-12-30T08:30:09.845Z,7.72
2018-12-30T08:32:34.234Z,8.39
2018-12-30T08:35:11.246Z,8.51
2018-12-30T08:37:35.658Z,7.71
2018-12-30T08:40:00.166Z,8.02
2018-12-30T08:42:24.555Z,7.89
2018-12-30T08:44:48.939Z,8.57
2018-12-30T08:47:13.344Z,8.71
2018-12-30T08:49:37.728Z,8.10
2018-12-30T08:52:02.133Z,8.31
2018-12-30T08:54:26.489Z,8.28
2018-12-30T08:57:03.368Z,7.98
2018-12-30T08:59:27.757Z,7.33
2018-12-30T09:01:52.155Z,8.63
2018-12-30T09:04:16.539Z,9.08
2018-12-30T09:06:40.925Z,8.21
2018-12-30T09:12:02.328Z,7.77
2018-12-30T09:14:26.754Z,8.14
2018-12-30T09:16:51.138Z,8.24
2018-12-30T09:19:15.555Z,8.45
2018-12-30T09:24:16.472Z,8.19
2018-12-30T09:26:40.854Z,8.12
2018-12-30T09:29:05.363Z,8.21
2018-12-30T09:31:29.761Z,7.87
2018-12-30T09:33:54.141Z,8.31
2018-12-30T09:36:18.625Z,7.64
2018-12-30T09:38:43.000Z,7.83
2018-12-30T09:41:07.411Z,7.97
2018-12-30T09:43:31.791Z,8.26
2018-12-30T09:45:56.201Z,8.36
2018-12-30T09:48:20.605Z,8.27
2018-12-30T09:50:45.040Z,8.32
2018-12-30T09:53:09.419Z,8.30
2018-12-30T09:55:33.821Z,8.11
2018-12-30T09:57:58.213Z,8.48
2018-12-30T10:00:22.604Z,8.66
2018-12-30T10:02:47.015Z,8.43
2018-12-30T10:05:11.435Z,8.48
2018-12-30T10:07:35.872Z,8.11
2018-12-30T10:10:00.260Z,8.21
2018-12-30T10:12:24.658Z,8.37
2018-12-30T10:14:49.045Z,8.29
2018-12-30T10:17:13.455Z,8.27
2018-12-30T10:19:37.849Z,8.35
2018-12-30T10:22:02.254Z,8.31
2018-12-30T10:24:26.644Z,8.00
2018-12-30T10:26:51.027Z,8.10
2018-12-30T10:29:15.426Z,8.96
2018-12-30T10:31:39.809Z,9.21
2018-12-30T10:34:04.229Z,8.84
2018-12-30T10:36:28.617Z,8.94
2018-12-30T10:38:53.029Z,8.48
2018-12-30T10:41:17.501Z,8.68
2018-12-30T10:43:41.925Z,8.29
2018-12-30T10:46:06.330Z,8.74
2018-12-30T10:48:30.714Z,8.38
2018-12-30T10:50:55.103Z,8.62
2018-12-30T10:53:19.468Z,8.39
2018-12-30T10:55:43.869Z,8.56
2018-12-30T10:58:08.257Z,8.57
2018-12-30T11:00:32.680Z,8.74
2018-12-30T11:02:57.056Z,8.70
2018-12-30T11:05:21.483Z,8.45
2018-12-30T11:07:45.869Z,8.64
2018-12-30T11:10:10.321Z,8.91
2018-12-30T11:12:34.766Z,9.23
2018-12-30T11:14:59.150Z,8.92
2018-12-30T11:17:23.555Z,8.52
2018-12-30T11:19:47.948Z,9.32
2018-12-30T11:22:12.364Z,9.30
2018-12-30T11:24:36.738Z,9.53
2018-12-30T11:27:01.125Z,9.21
2018-12-30T11:29:25.513Z,8.90
2018-12-30T11:31:49.937Z,9.10
2018-12-30T11:34:14.333Z,9.25
2018-12-30T11:36:38.738Z,9.06
2018-12-30T11:39:03.230Z,9.42
2018-12-30T11:41:27.586Z,8.84
2018-12-30T11:43:52.028Z,9.10
2018-12-30T11:46:16.400Z,8.88
2018-12-30T11:48:40.807Z,9.87
2018-12-30T11:51:05.198Z,9.09
2018-12-30T11:53:29.588Z,9.13
2018-12-30T11:55:53.994Z,9.19
2018-12-30T11:58:23.564Z,9.17
2018-12-30T12:01:00.595Z,9.23
2018-12-30T12:03:25.036Z,9.56
2018-12-30T12:05:49.437Z,9.22
2018-12-30T12:08:13.829Z,9.40
2018-12-30T12:10:38.237Z,9.53
2018-12-30T12:13:02.607Z,9.00
2018-12-30T12:15:27.089Z,9.07
2018-12-30T12:17:51.484Z,9.34
2018-12-30T12:20:15.899Z,9.43
2018-12-30T12:25:16.295Z,9.43
2018-12-30T12:27:40.745Z,9.20
2018-12-30T12:30:25.972Z,9.48
2018-12-30T12:32:50.374Z,9.64
2018-12-30T12:35:14.741Z,9.29
2018-12-30T12:37:39.149Z,9.46
2018-12-30T12:40:15.062Z,9.00
2018-12-30T12:42:39.462Z,9.52
2018-12-30T12:47:39.985Z,9.37
2018-12-30T12:50:04.923Z,9.43
2018-12-30T12:52:29.320Z,9.10
2018-12-30T12:54:53.700Z,9.74
2018-12-30T12:57:18.125Z,8.78
2018-12-30T12:59:42.500Z,9.03
2018-12-30T13:02:06.888Z,9.68
2018-12-30T13:04:31.346Z,9.79
2018-12-30T13:06:55.725Z,9.00
2018-12-30T13:09:20.129Z,9.51
2018-12-30T13:11:44.529Z,8.97
2018-12-30T13:14:08.935Z,9.22
2018-12-30T13:16:33.339Z,9.07
2018-12-30T13:18:57.753Z,9.07
2018-12-30T13:21:22.124Z,8.87
2018-12-30T13:23:46.526Z,8.79
2018-12-30T13:26:10.932Z,8.80
2018-12-30T13:28:35.337Z,9.13
2018-12-30T13:30:59.758Z,8.99
2018-12-30T13:33:24.144Z,9.31
2018-12-30T13:35:48.560Z,9.11
2018-12-30T13:38:12.967Z,9.38
2018-12-30T13:40:37.376Z,9.49
2018-12-30T13:43:01.776Z,9.72
2018-12-30T13:45:26.188Z,9.62
2018-12-30T13:47:50.587Z,9.60
2018-12-30T13:50:14.969Z,9.71
2018-12-30T13:52:39.398Z,9.73
2018-12-30T13:55:14.836Z,10.12
2018-12-30T13:57:40.093Z,10.04
2018-12-30T14:03:01.333Z,9.32
2018-12-30T14:05:25.714Z,9.03
2018-12-30T14:07:50.146Z,8.86
2018-12-30T14:10:14.510Z,9.04
2018-12-30T14:12:39.031Z,8.74
2018-12-30T14:15:03.429Z,8.72
2018-12-30T14:17:27.854Z,8.88
2018-12-30T14:19:52.230Z,8.86
2018-12-30T14:22:16.605Z,8.63
2018-12-30T14:24:41.025Z,8.98
2018-12-30T14:27:05.786Z,10.01
2018-12-30T14:29:30.209Z,9.67
2018-12-30T14:31:54.616Z,9.05
2018-12-30T14:34:19.016Z,9.18
2018-12-30T14:36:43.414Z,8.94
2018-12-30T14:39:07.827Z,9.80
2018-12-30T14:41:32.227Z,9.14
2018-12-30T14:43:56.657Z,8.99
2018-12-30T14:46:21.131Z,8.95
2018-12-30T14:48:45.524Z,9.08
2018-12-30T14:51:09.941Z,8.73
2018-12-30T14:53:34.330Z,9.27
2018-12-30T14:55:58.754Z,9.13
2018-12-30T14:58:35.594Z,8.70
2018-12-30T15:01:00.008Z,9.16
2018-12-30T15:03:24.394Z,9.01
2018-12-30T15:05:48.860Z,8.95
2018-12-30T15:08:13.276Z,9.11
2018-12-30T15:10:37.844Z,9.24
2018-12-30T15:13:02.223Z,9.03
2018-12-30T15:15:26.622Z,8.78
2018-12-30T15:17:51.047Z,8.57
2018-12-30T15:20:15.436Z,8.68
2018-12-30T15:22:39.882Z,8.65
2018-12-30T15:25:15.501Z,8.83
2018-12-30T15:27:52.026Z,8.82
2018-12-30T15:30:16.416Z,9.09
2018-12-30T15:32:40.817Z,8.71
2018-12-30T15:38:02.499Z,8.65
2018-12-30T15:40:26.872Z,8.81
2018-12-30T15:42:51.324Z,8.88
2018-12-30T15:45:15.719Z,9.25
2018-12-30T15:47:40.103Z,8.70
2018-12-30T15:50:15.684Z,8.99
2018-12-30T15:52:40.079Z,8.88
2018-12-30T15:55:04.573Z,8.61
2018-12-30T15:57:28.965Z,8.52
2018-12-30T15:59:53.391Z,8.77
2018-12-30T16:02:17.782Z,9.16
2018-12-30T16:04:42.200Z,8.58
2018-12-30T16:07:06.587Z,8.48
2018-12-30T16:09:31.021Z,8.45
2018-12-30T16:11:55.401Z,9.16
2018-12-30T16:14:19.796Z,8.62
2018-12-30T16:16:44.205Z,8.50
2018-12-30T16:19:08.589Z,8.50
2018-12-30T16:21:32.983Z,8.76
2018-12-30T16:23:57.370Z,8.95
2018-12-30T16:26:21.771Z,8.61
2018-12-30T16:28:46.181Z,8.93
2018-12-30T16:33:45.621Z,8.41
2018-12-30T16:36:10.054Z,8.64
2018-12-30T16:38:34.417Z,8.34
2018-12-30T16:43:35.275Z,8.82
2018-12-30T16:45:59.678Z,8.56
2018-12-30T16:48:24.084Z,9.02
2018-12-30T16:50:48.490Z,9.13
2018-12-30T16:53:12.896Z,9.35
2018-12-30T16:55:37.304Z,8.98
2018-12-30T16:58:01.731Z,9.00
2018-12-30T17:00:26.118Z,8.72
2018-12-30T17:02:50.538Z,8.19
2018-12-30T17:05:15.151Z,8.75
2018-12-30T17:07:39.532Z,8.65
2018-12-30T17:10:15.228Z,8.46
2018-12-30T17:15:36.086Z,8.65
2018-12-30T17:18:00.487Z,8.53
2018-12-30T17:20:24.939Z,9.32
2018-12-30T17:22:49.324Z,9.13
2018-12-30T17:25:13.742Z,8.44
2018-12-30T17:27:38.129Z,8.29
2018-12-30T17:30:02.615Z,8.71
2018-12-30T17:32:27.029Z,8.97
2018-12-30T17:35:03.196Z,9.41
2018-12-30T17:37:27.610Z,8.93
2018-12-30T17:39:51.994Z,9.12
2018-12-30T17:42:16.444Z,8.53
2018-12-30T17:44:40.831Z,8.74
2018-12-30T17:47:05.250Z,9.16
2018-12-30T17:49:29.660Z,8.95
2018-12-30T17:51:54.061Z,9.50
2018-12-30T17:54:30.978Z,9.31
2018-12-30T17:56:55.388Z,9.80
2018-12-30T17:59:19.778Z,9.35
2018-12-30T18:01:44.186Z,9.55
2018-12-30T18:04:08.570Z,8.90
2018-12-30T18:06:33.004Z,8.60
2018-12-30T18:08:57.434Z,8.57
2018-12-30T18:11:21.833Z,8.79
2018-12-30T18:13:46.269Z,8.97
2018-12-30T18:16:10.677Z,8.82
2018-12-30T18:18:35.080Z,8.42
2018-12-30T18:20:59.497Z,8.73
2018-12-30T18:23:23.916Z,8.73
2018-12-30T18:25:48.316Z,9.16
2018-12-30T18:28:12.743Z,8.21
2018-12-30T18:30:37.142Z,8.67
2018-12-30T18:33:14.133Z,8.55
2018-12-30T18:35:38.525Z,7.92
2018-12-30T18:38:04.264Z,8.76
2018-12-30T18:40:34.680Z,8.08
2018-12-30T18:42:59.096Z,8.56
2018-12-30T18:45:23.497Z,8.34
2018-12-30T18:47:47.899Z,8.22
2018-12-30T18:50:12.320Z,8.50
2018-12-30T18:52:36.713Z,7.98
2018-12-30T18:55:01.151Z,8.35
2018-12-30T18:57:25.545Z,8.15
2018-12-30T18:59:49.934Z,8.31
2018-12-30T19:02:14.352Z,8.12
2018-12-30T19:04:38.739Z,8.17
2018-12-30T19:07:03.149Z,8.80
2018-12-30T19:09:27.556Z,8.44
2018-12-30T19:11:51.985Z,8.22
2018-12-30T19:16:52.789Z,8.89
2018-12-30T19:19:17.190Z,8.66
2018-12-30T19:21:41.705Z,8.40
2018-12-30T19:24:06.107Z,8.15
2018-12-30T19:26:30.541Z,7.93
2018-12-30T19:28:54.953Z,7.87
2018-12-30T19:31:19.352Z,8.20
2018-12-30T19:33:43.781Z,7.66
2018-12-30T19:36:08.186Z,7.81
2018-12-30T19:38:32.619Z,7.94
2018-12-30T19:40:56.999Z,7.95
2018-12-30T19:43:21.442Z,8.12
2018-12-30T19:45:45.833Z,7.79
2018-12-30T19:48:10.301Z,7.98
2018-12-30T19:50:34.686Z,8.15
2018-12-30T19:52:59.095Z,8.40
2018-12-30T19:55:23.542Z,8.02
2018-12-30T19:57:47.921Z,8.02
2018-12-30T20:00:12.409Z,7.87
2018-12-30T20:02:36.807Z,8.13
2018-12-30T20:05:01.234Z,7.64
2018-12-30T20:07:25.648Z,7.65
2018-12-30T20:09:50.049Z,7.80
2018-12-30T20:12:14.467Z,7.73
2018-12-30T20:14:38.875Z,8.20
2018-12-30T20:17:03.270Z,7.86
2018-12-30T20:19:27.677Z,7.92
2018-12-30T20:21:52.076Z,7.82
2018-12-30T20:24:21.878Z,7.76
2018-12-30T20:26:46.280Z,7.31
2018-12-30T20:29:10.698Z,8.01
2018-12-30T20:31:35.074Z,8.51
2018-12-30T20:33:59.505Z,8.13
2018-12-30T20:36:23.888Z,7.80
2018-12-30T20:38:48.277Z,7.76
2018-12-30T20:41:12.672Z,7.72
2018-12-30T20:43:37.065Z,7.51
2018-12-30T20:46:01.487Z,7.59
2018-12-30T20:48:25.886Z,7.62
2018-12-30T20:50:50.313Z,7.47
2018-12-30T20:53:14.697Z,7.49
2018-12-30T20:55:39.104Z,7.47
2018-12-30T20:58:03.502Z,7.47
2018-12-30T21:00:27.924Z,7.44
2018-12-30T21:02:52.341Z,7.43
2018-12-30T21:05:16.716Z,7.44
2018-12-30T21:07:41.133Z,7.37
2018-12-30T21:13:01.986Z,7.46
2018-12-30T21:15:26.383Z,7.58
2018-12-30T21:17:50.784Z,7.48
2018-12-30T21:20:15.195Z,7.48
2018-12-30T21:22:39.638Z,7.52
2018-12-30T21:25:14.829Z,7.53
2018-12-30T21:27:39.240Z,7.68
2018-12-30T21:30:14.855Z,7.84
2018-12-30T21:32:51.976Z,7.68
2018-12-30T21:35:16.360Z,7.80
2018-12-30T21:37:53.414Z,8.14
2018-12-30T21:40:17.808Z,8.20
2018-12-30T21:42:44.021Z,7.80
2018-12-30T21:45:14.313Z,8.02
2018-12-30T21:47:38.696Z,8.00
2018-12-30T21:50:03.183Z,8.02
2018-12-30T21:52:27.589Z,7.84
2018-12-30T21:54:52.026Z,7.83
2018-12-30T21:57:16.441Z,7.66
2018-12-30T21:59:40.872Z,7.55
2018-12-30T22:02:05.285Z,7.57
2018-12-30T22:04:29.702Z,7.59
2018-12-30T22:06:54.111Z,7.68
2018-12-30T22:09:18.493Z,7.72
2018-12-30T22:11:42.910Z,7.80
2018-12-30T22:14:07.302Z,7.63
2018-12-30T22:16:44.030Z,7.76
2018-12-30T22:19:08.439Z,7.64
2018-12-30T22:21:32.868Z,7.82
2018-12-30T22:23:57.259Z,7.96
2018-12-30T22:26:21.664Z,7.80
2018-12-30T22:28:46.090Z,7.75
2018-12-30T22:31:10.509Z,7.64
2018-12-30T22:33:34.905Z,7.58
2018-12-30T22:35:59.301Z,7.61
2018-12-30T22:38:23.736Z,7.60
2018-12-30T22:40:48.148Z,7.74
2018-12-30T22:43:17.829Z,7.69
2018-12-30T22:45:42.226Z,8.12
2018-12-30T22:48:06.664Z,7.95
2018-12-30T22:50:31.058Z,7.97
2018-12-30T22:52:55.495Z,8.04
2018-12-30T22:55:19.882Z,7.98
2018-12-30T22:57:44.334Z,7.84
2018-12-30T23:00:48.646Z,7.89
2018-12-30T23:03:13.075Z,7.76
2018-12-30T23:05:37.464Z,7.90
2018-12-30T23:08:01.858Z,7.94
2018-12-30T23:10:26.356Z,8.11
2018-12-30T23:12:50.731Z,8.07
2018-12-30T23:15:15.139Z,8.15
2018-12-30T23:17:39.535Z,8.62
2018-12-30T23:23:01.251Z,8.53
2018-12-30T23:25:25.659Z,8.49
2018-12-30T23:27:50.062Z,8.78
2018-12-30T23:30:14.497Z,8.59
2018-12-30T23:32:38.911Z,8.50
2018-12-30T23:35:03.303Z,8.53
2018-12-30T23:37:27.715Z,8.31
2018-12-30T23:39:52.113Z,8.19
2018-12-30T23:42:16.534Z,8.05
2018-12-30T23:44:40.923Z,7.65
2018-12-30T23:47:05.338Z,7.86
2018-12-30T23:49:35.153Z,8.03
2018-12-30T23:51:59.565Z,8.05
2018-12-30T23:54:23.965Z,7.84
2018-12-30T23:56:48.382Z,7.93
2018-12-30T23:59:12.767Z,8.10
